CG Hudson — NCWX — position and weather

sailwx.info

Track history (hours):
 
Tides and Currents Weather Stations Pressure Air Temp Water Temp Dewpoint Dewpoint Depression Visibility Wind Speed Wind Dir Waves Ship Positions

CG Hudson

Last reported at 2018-Feb-15 17:11 UTC. Time now 2018-Feb-25 22:01 UTC.
Position N 25°46' W 080°09'.
Warning: this ship's position is 10 days out of date.

Length 48 m; draft 2 m.

Type: Law enforcement. MMSI: 366999791.

Date/timePositionNaut miles runAvg speedWind from/ knotsBaromVisibWave heightAir tempDewpointWater temp
2018-Feb-15 17:11N 25°46' W 080°09'0 0.0
2018-Feb-15 17:00N 25°46' W 080°09'1 2.7
2018-Feb-15 16:30N 25°47' W 080°10'3 6.4
2018-Feb-15 16:00N 25°50' W 080°10'3 6.2
2018-Feb-15 15:30N 25°53' W 080°09'3 6.0
2018-Feb-15 15:00N 25°56' W 080°08'3 5.9
2018-Feb-15 14:30N 25°58' W 080°07'3 6.3
2018-Feb-15 14:00N 26°02' W 080°07'3 6.7
2018-Feb-15 13:30N 26°05' W 080°07'2 4.1
2018-Feb-15 13:00N 26°07' W 080°06'0 0.0
2018-Feb-15 12:30N 26°07' W 080°06'0 0.0
2018-Feb-15 12:00N 26°07' W 080°06'0 0.0
2018-Feb-15 11:30N 26°07' W 080°06'0 0.0
2018-Feb-15 11:00N 26°07' W 080°06'0 0.0
2018-Feb-15 10:30N 26°07' W 080°06'0 0.0
2018-Feb-15 10:00N 26°07' W 080°06'0 0.0
2018-Feb-15 09:30N 26°07' W 080°06'0 0.0
2018-Feb-15 09:00N 26°07' W 080°06'0 0.0
2018-Feb-15 08:30N 26°07' W 080°06'0 0.0
2018-Feb-15 08:00N 26°07' W 080°06'0 0.0
2018-Feb-15 07:30N 26°07' W 080°06'0 0.0
2018-Feb-15 07:01N 26°07' W 080°06'0 0.0
2018-Feb-15 06:30N 26°07' W 080°06'0 0.0
2018-Feb-15 06:00N 26°07' W 080°06'0 0.0
2018-Feb-15 05:30N 26°07' W 080°06'0 0.0
2018-Feb-15 05:00N 26°07' W 080°06'0 0.0
2018-Feb-15 04:30N 26°07' W 080°06'0 0.0
2018-Feb-15 04:00N 26°07' W 080°06'0 0.0
2018-Feb-15 03:30N 26°07' W 080°06'0 0.0
2018-Feb-15 03:00N 26°07' W 080°06'0 0.0
2018-Feb-15 02:30N 26°07' W 080°06'0 0.0
2018-Feb-15 02:00N 26°07' W 080°06'0 0.0
2018-Feb-15 01:30N 26°07' W 080°06'0 0.0
2018-Feb-15 01:00N 26°07' W 080°06'0 0.0
2018-Feb-15 00:30N 26°07' W 080°06'0 0.0
2018-Feb-15 00:00N 26°07' W 080°06'0 0.0
2018-Feb-14 23:30N 26°07' W 080°06'0 0.0
2018-Feb-14 23:00N 26°07' W 080°06'1 2.9
2018-Feb-14 22:30N 26°08' W 080°06'3 5.3
2018-Feb-14 22:00N 26°11' W 080°06'3 6.0
2018-Feb-14 21:29N 26°14' W 080°06'3 5.4
2018-Feb-14 21:00N 26°17' W 080°05'3 5.8
2018-Feb-14 20:29N 26°20' W 080°05'3 5.3
2018-Feb-14 19:58N 26°22' W 080°04'27 1.2
2018-Feb-13 21:25N 26°49' W 080°03'3 4.7
2018-Feb-13 20:47N 26°52' W 080°04'1 5.3
2018-Feb-13 20:30N 26°53' W 080°04'3 5.8
2018-Feb-13 20:00N 26°56' W 080°05'3 5.3
2018-Feb-13 19:30N 26°59' W 080°05'4 7.0
2018-Feb-13 19:00N 27°02' W 080°06'  
2018-Feb-08 19:00N 26°03' W 080°07'8 0.3
2018-Feb-07 09:30N 25°55' W 080°08'0 0.0
2018-Feb-07 09:00N 25°55' W 080°08'0 0.0
2018-Feb-07 08:30N 25°55' W 080°08'0 0.0
2018-Feb-07 08:00N 25°55' W 080°08'0 0.0
2018-Feb-07 07:30N 25°55' W 080°08'0 0.0
2018-Feb-07 07:00N 25°55' W 080°08'0 0.0
2018-Feb-07 06:30N 25°55' W 080°08'0 0.0
2018-Feb-07 06:00N 25°55' W 080°08'0 0.0
2018-Feb-07 05:30N 25°55' W 080°08'0 0.0
2018-Feb-07 05:00N 25°55' W 080°08'0 0.0
2018-Feb-07 04:30N 25°55' W 080°08'0 0.0
2018-Feb-07 04:00N 25°55' W 080°08'0 0.0
2018-Feb-07 03:30N 25°55' W 080°08'0 0.0
2018-Feb-07 03:00N 25°55' W 080°08'0 0.0
2018-Feb-07 02:30N 25°55' W 080°08'0 0.0
2018-Feb-07 02:00N 25°55' W 080°08'0 0.0
2018-Feb-07 01:30N 25°55' W 080°08'0 0.0
2018-Feb-07 01:00N 25°55' W 080°08'0 0.0
2018-Feb-07 00:30N 25°55' W 080°08'0 0.0
2018-Feb-07 00:00N 25°55' W 080°08'0 0.0
2018-Feb-06 23:30N 25°55' W 080°08'0 0.0
2018-Feb-06 23:00N 25°55' W 080°08'0 0.0
2018-Feb-06 22:30N 25°55' W 080°08'0 0.0
2018-Feb-06 22:00N 25°55' W 080°08'0 0.0
2018-Feb-06 21:30N 25°55' W 080°08'0 0.0
2018-Feb-06 21:00N 25°55' W 080°08'0 0.0
2018-Feb-06 20:30N 25°55' W 080°08'0 0.0
2018-Feb-06 20:00N 25°55' W 080°08'0 0.0
2018-Feb-06 19:30N 25°55' W 080°08'0 0.0
2018-Feb-06 19:00N 25°55' W 080°08'0 0.0
2018-Feb-06 18:30N 25°55' W 080°08'0 0.0
2018-Feb-06 18:00N 25°55' W 080°08'0 0.0
2018-Feb-06 17:30N 25°55' W 080°08'3 5.7
2018-Feb-06 17:00N 25°52' W 080°09'3 6.4
2018-Feb-06 16:30N 25°49' W 080°10'3 5.6
2018-Feb-06 16:00N 25°47' W 080°10'1 1.9
2018-Feb-06 15:30N 25°46' W 080°09'0 0.0
2018-Feb-06 15:00N 25°46' W 080°09'0 0.0
2018-Feb-06 14:00N 25°46' W 080°09'0 0.0
2018-Feb-06 13:30N 25°46' W 080°09'  
Track history (hours):
 
Tides and Currents Weather Stations Pressure Air Temp Water Temp Dewpoint Dewpoint Depression Visibility Wind Speed Wind Dir Waves Ship Positions

CG Hudson

Last reported at 2018-Feb-15 17:11 UTC. Time now 2018-Feb-25 22:01 UTC.
Position N 25°46' W 080°09'.
Warning: this ship's position is 10 days out of date.

Length 48 m; draft 2 m.

Type: Law enforcement. MMSI: 366999791.

Date/timePositionNaut miles runAvg speedWind from/ knotsBaromVisibWave heightAir tempDewpointWater temp
2018-Feb-15 17:11N 25°46' W 080°09'0 0.0
2018-Feb-15 17:00N 25°46' W 080°09'1 2.7
2018-Feb-15 16:30N 25°47' W 080°10'3 6.4
2018-Feb-15 16:00N 25°50' W 080°10'3 6.2
2018-Feb-15 15:30N 25°53' W 080°09'3 6.0
2018-Feb-15 15:00N 25°56' W 080°08'3 5.9
2018-Feb-15 14:30N 25°58' W 080°07'3 6.3
2018-Feb-15 14:00N 26°02' W 080°07'3 6.7
2018-Feb-15 13:30N 26°05' W 080°07'2 4.1
2018-Feb-15 13:00N 26°07' W 080°06'0 0.0
2018-Feb-15 12:30N 26°07' W 080°06'0 0.0
2018-Feb-15 12:00N 26°07' W 080°06'0 0.0
2018-Feb-15 11:30N 26°07' W 080°06'0 0.0
2018-Feb-15 11:00N 26°07' W 080°06'0 0.0
2018-Feb-15 10:30N 26°07' W 080°06'0 0.0
2018-Feb-15 10:00N 26°07' W 080°06'0 0.0
2018-Feb-15 09:30N 26°07' W 080°06'0 0.0
2018-Feb-15 09:00N 26°07' W 080°06'0 0.0
2018-Feb-15 08:30N 26°07' W 080°06'0 0.0
2018-Feb-15 08:00N 26°07' W 080°06'0 0.0
2018-Feb-15 07:30N 26°07' W 080°06'0 0.0
2018-Feb-15 07:01N 26°07' W 080°06'0 0.0
2018-Feb-15 06:30N 26°07' W 080°06'0 0.0
2018-Feb-15 06:00N 26°07' W 080°06'0 0.0
2018-Feb-15 05:30N 26°07' W 080°06'0 0.0
2018-Feb-15 05:00N 26°07' W 080°06'0 0.0
2018-Feb-15 04:30N 26°07' W 080°06'0 0.0
2018-Feb-15 04:00N 26°07' W 080°06'0 0.0
2018-Feb-15 03:30N 26°07' W 080°06'0 0.0
2018-Feb-15 03:00N 26°07' W 080°06'0 0.0
2018-Feb-15 02:30N 26°07' W 080°06'0 0.0
2018-Feb-15 02:00N 26°07' W 080°06'0 0.0
2018-Feb-15 01:30N 26°07' W 080°06'0 0.0
2018-Feb-15 01:00N 26°07' W 080°06'0 0.0
2018-Feb-15 00:30N 26°07' W 080°06'0 0.0
2018-Feb-15 00:00N 26°07' W 080°06'0 0.0
2018-Feb-14 23:30N 26°07' W 080°06'0 0.0
2018-Feb-14 23:00N 26°07' W 080°06'1 2.9
2018-Feb-14 22:30N 26°08' W 080°06'3 5.3
2018-Feb-14 22:00N 26°11' W 080°06'3 6.0
2018-Feb-14 21:29N 26°14' W 080°06'3 5.4
2018-Feb-14 21:00N 26°17' W 080°05'3 5.8
2018-Feb-14 20:29N 26°20' W 080°05'3 5.3
2018-Feb-14 19:58N 26°22' W 080°04'27 1.2
2018-Feb-13 21:25N 26°49' W 080°03'3 4.7
2018-Feb-13 20:47N 26°52' W 080°04'1 5.3
2018-Feb-13 20:30N 26°53' W 080°04'3 5.8
2018-Feb-13 20:00N 26°56' W 080°05'3 5.3
2018-Feb-13 19:30N 26°59' W 080°05'4 7.0
2018-Feb-13 19:00N 27°02' W 080°06'  
2018-Feb-08 19:00N 26°03' W 080°07'8 0.3
2018-Feb-07 09:30N 25°55' W 080°08'0 0.0
2018-Feb-07 09:00N 25°55' W 080°08'0 0.0
2018-Feb-07 08:30N 25°55' W 080°08'0 0.0
2018-Feb-07 08:00N 25°55' W 080°08'0 0.0
2018-Feb-07 07:30N 25°55' W 080°08'0 0.0
2018-Feb-07 07:00N 25°55' W 080°08'0 0.0
2018-Feb-07 06:30N 25°55' W 080°08'0 0.0
2018-Feb-07 06:00N 25°55' W 080°08'0 0.0
2018-Feb-07 05:30N 25°55' W 080°08'0 0.0
2018-Feb-07 05:00N 25°55' W 080°08'0 0.0
2018-Feb-07 04:30N 25°55' W 080°08'0 0.0
2018-Feb-07 04:00N 25°55' W 080°08'0 0.0
2018-Feb-07 03:30N 25°55' W 080°08'0 0.0
2018-Feb-07 03:00N 25°55' W 080°08'0 0.0
2018-Feb-07 02:30N 25°55' W 080°08'0 0.0
2018-Feb-07 02:00N 25°55' W 080°08'0 0.0
2018-Feb-07 01:30N 25°55' W 080°08'0 0.0
2018-Feb-07 01:00N 25°55' W 080°08'0 0.0
2018-Feb-07 00:30N 25°55' W 080°08'0 0.0
2018-Feb-07 00:00N 25°55' W 080°08'0 0.0
2018-Feb-06 23:30N 25°55' W 080°08'0 0.0
2018-Feb-06 23:00N 25°55' W 080°08'0 0.0
2018-Feb-06 22:30N 25°55' W 080°08'0 0.0
2018-Feb-06 22:00N 25°55' W 080°08'0 0.0
2018-Feb-06 21:30N 25°55' W 080°08'0 0.0
2018-Feb-06 21:00N 25°55' W 080°08'0 0.0
2018-Feb-06 20:30N 25°55' W 080°08'0 0.0
2018-Feb-06 20:00N 25°55' W 080°08'0 0.0
2018-Feb-06 19:30N 25°55' W 080°08'0 0.0
2018-Feb-06 19:00N 25°55' W 080°08'0 0.0
2018-Feb-06 18:30N 25°55' W 080°08'0 0.0
2018-Feb-06 18:00N 25°55' W 080°08'0 0.0
2018-Feb-06 17:30N 25°55' W 080°08'3 5.7
2018-Feb-06 17:00N 25°52' W 080°09'3 6.4
2018-Feb-06 16:30N 25°49' W 080°10'3 5.6
2018-Feb-06 16:00N 25°47' W 080°10'1 1.9
2018-Feb-06 15:30N 25°46' W 080°09'0 0.0
2018-Feb-06 15:00N 25°46' W 080°09'0 0.0
2018-Feb-06 14:00N 25°46' W 080°09'0 0.0
2018-Feb-06 13:30N 25°46' W 080°09'  

Dump ship's entire track history